createdAt,value
2018-09-17T00:02:12.946Z,11.80
2018-09-17T00:04:41.381Z,12.17
2018-09-17T00:07:09.884Z,12.07
2018-09-17T00:09:38.298Z,12.57
2018-09-17T00:12:06.919Z,12.47
2018-09-17T00:14:35.363Z,12.57
2018-09-17T00:17:04.196Z,12.10
2018-09-17T00:19:32.690Z,10.90
2018-09-17T00:22:01.117Z,11.90
2018-09-17T00:24:29.606Z,12.07
2018-09-17T00:26:58.056Z,11.37
2018-09-17T00:29:26.514Z,11.43
2018-09-17T00:31:54.961Z,12.30
2018-09-17T00:34:23.442Z,10.80
2018-09-17T00:36:51.953Z,12.40
2018-09-17T00:39:20.417Z,11.53
2018-09-17T00:41:48.848Z,11.87
2018-09-17T00:44:17.377Z,10.60
2018-09-17T00:46:45.835Z,11.33
2018-09-17T00:49:20.749Z,11.13
2018-09-17T00:51:49.158Z,11.27
2018-09-17T00:54:17.797Z,11.30
2018-09-17T00:56:46.248Z,11.93
2018-09-17T00:59:14.742Z,10.80
2018-09-17T01:01:43.182Z,11.13
2018-09-17T01:04:11.890Z,10.17
2018-09-17T01:06:40.376Z,10.67
2018-09-17T01:09:12.818Z,11.00
2018-09-17T01:11:41.272Z,11.53
2018-09-17T01:14:09.701Z,11.00
2018-09-17T01:16:38.222Z,11.10
2018-09-17T01:19:06.745Z,11.00
2018-09-17T01:21:35.256Z,11.03
2018-09-17T01:24:03.702Z,10.00
2018-09-17T01:26:32.157Z,11.47
2018-09-17T01:29:00.603Z,11.63
2018-09-17T01:31:29.103Z,11.37
2018-09-17T01:33:57.556Z,11.33
2018-09-17T01:36:26.022Z,11.20
2018-09-17T01:38:54.474Z,10.50
2018-09-17T01:41:22.978Z,10.97
2018-09-17T01:43:51.403Z,11.43
2018-09-17T01:46:19.956Z,11.53
2018-09-17T01:48:48.365Z,11.07
2018-09-17T01:51:16.842Z,12.00
2018-09-17T01:53:45.322Z,11.27
2018-09-17T01:56:13.826Z,11.47
2018-09-17T01:58:42.303Z,12.00
2018-09-17T02:01:10.779Z,11.00
2018-09-17T02:03:39.240Z,11.43
2018-09-17T02:06:07.722Z,11.30
2018-09-17T02:08:36.180Z,12.57
2018-09-17T02:11:04.686Z,11.33
2018-09-17T02:13:33.202Z,11.10
2018-09-17T02:16:02.138Z,11.10
2018-09-17T02:18:30.633Z,12.17
2018-09-17T02:20:59.061Z,11.27
2018-09-17T02:23:27.515Z,11.40
2018-09-17T02:25:55.974Z,10.47
2018-09-17T02:28:24.437Z,10.83
2018-09-17T02:30:52.866Z,10.93
2018-09-17T02:33:21.322Z,10.47
2018-09-17T02:35:49.727Z,10.20
2018-09-17T02:38:18.193Z,10.03
2018-09-17T02:40:46.689Z,10.63
2018-09-17T02:43:15.213Z,10.67
2018-09-17T02:45:43.641Z,10.73
2018-09-17T02:48:12.117Z,11.47
2018-09-17T02:50:40.576Z,11.17
2018-09-17T02:53:09.019Z,11.73
2018-09-17T02:55:37.575Z,11.67
2018-09-17T02:58:06.019Z,12.43
2018-09-17T03:00:34.483Z,11.03
2018-09-17T03:03:04.023Z,11.80
2018-09-17T03:05:32.537Z,11.80
2018-09-17T03:08:00.979Z,10.80
2018-09-17T03:10:29.449Z,11.50
2018-09-17T03:12:57.870Z,12.47
2018-09-17T03:15:39.554Z,11.20
2018-09-17T03:18:08.038Z,12.20
2018-09-17T03:20:36.635Z,12.23
2018-09-17T03:23:05.084Z,11.10
2018-09-17T03:25:33.531Z,11.10
2018-09-17T03:28:02.004Z,10.93
2018-09-17T03:30:30.474Z,10.23
2018-09-17T03:32:58.990Z,11.53
2018-09-17T03:35:27.474Z,11.07
2018-09-17T03:37:56.908Z,10.80
2018-09-17T03:40:25.481Z,10.47
2018-09-17T03:42:53.946Z,11.80
2018-09-17T03:45:22.413Z,11.30
2018-09-17T03:47:50.922Z,11.20
2018-09-17T03:50:19.342Z,11.67
2018-09-17T03:52:47.822Z,11.47
2018-09-17T03:55:16.284Z,10.77
2018-09-17T03:57:44.744Z,12.17
2018-09-17T04:00:13.177Z,11.53
2018-09-17T04:02:41.622Z,11.73
2018-09-17T04:05:10.058Z,12.20
2018-09-17T04:07:38.518Z,11.40
2018-09-17T04:10:06.964Z,10.87
2018-09-17T04:12:35.828Z,10.90
2018-09-17T04:15:04.334Z,11.77
2018-09-17T04:17:33.063Z,10.30
2018-09-17T04:20:02.005Z,10.50
2018-09-17T04:22:30.482Z,10.77
2018-09-17T04:24:58.931Z,10.60
2018-09-17T04:27:27.400Z,10.87
2018-09-17T04:29:55.789Z,10.67
2018-09-17T04:32:24.221Z,9.97
2018-09-17T04:34:52.656Z,9.97
2018-09-17T04:37:21.136Z,9.47
2018-09-17T04:39:49.687Z,9.50
2018-09-17T04:42:18.042Z,10.03
2018-09-17T04:44:46.498Z,9.80
2018-09-17T04:47:14.902Z,9.50
2018-09-17T04:49:43.395Z,9.40
2018-09-17T04:52:11.854Z,9.27
2018-09-17T04:54:40.302Z,10.07
2018-09-17T04:57:08.752Z,10.23
2018-09-17T04:59:37.204Z,9.63
2018-09-17T05:02:05.606Z,9.67
2018-09-17T05:04:34.061Z,10.07
2018-09-17T05:07:03.001Z,10.23
2018-09-17T05:09:31.437Z,9.53
2018-09-17T05:11:59.817Z,9.27
2018-09-17T05:14:28.278Z,9.30
2018-09-17T05:16:56.721Z,9.63
2018-09-17T05:19:25.242Z,9.27
2018-09-17T05:21:53.658Z,10.07
2018-09-17T05:24:22.108Z,9.27
2018-09-17T05:26:50.532Z,9.30
2018-09-17T05:29:18.965Z,9.53
2018-09-17T05:31:47.375Z,9.53
2018-09-17T05:34:15.837Z,9.30
2018-09-17T05:36:44.229Z,9.00
2018-09-17T05:39:12.705Z,8.90
2018-09-17T05:41:41.102Z,9.60
2018-09-17T05:44:09.501Z,9.70
2018-09-17T05:46:39.715Z,9.27
2018-09-17T05:49:08.180Z,8.90
2018-09-17T05:51:37.017Z,9.97
2018-09-17T05:54:05.544Z,9.50
2018-09-17T05:56:34.026Z,9.43
2018-09-17T05:59:02.467Z,10.13
2018-09-17T06:01:30.905Z,9.60
2018-09-17T06:03:59.318Z,9.03
2018-09-17T06:06:27.802Z,9.67
2018-09-17T06:08:56.237Z,9.77
2018-09-17T06:11:24.831Z,10.03
2018-09-17T06:13:53.241Z,9.97
2018-09-17T06:16:21.678Z,9.60
2018-09-17T06:18:50.126Z,9.33
2018-09-17T06:21:18.608Z,9.40
2018-09-17T06:23:47.045Z,10.17
2018-09-17T06:26:15.569Z,9.13
2018-09-17T06:28:44.712Z,10.27
2018-09-17T06:31:13.122Z,10.13
2018-09-17T06:33:41.588Z,9.80
2018-09-17T06:36:10.041Z,10.40
2018-09-17T06:38:38.849Z,9.90
2018-09-17T06:41:07.338Z,10.03
2018-09-17T06:43:35.789Z,10.63
2018-09-17T06:46:04.211Z,10.47
2018-09-17T06:48:32.666Z,11.17
2018-09-17T06:51:01.089Z,10.80
2018-09-17T06:53:29.703Z,11.53
2018-09-17T06:55:58.190Z,10.90
2018-09-17T06:58:26.685Z,11.33
2018-09-17T07:00:55.727Z,12.17
2018-09-17T07:03:24.369Z,12.53
2018-09-17T07:05:52.830Z,12.00
2018-09-17T07:08:21.380Z,12.87
2018-09-17T07:10:49.785Z,13.23
2018-09-17T07:13:18.239Z,13.20
2018-09-17T07:15:46.653Z,13.77
2018-09-17T07:18:15.177Z,14.00
2018-09-17T07:20:43.649Z,14.77
2018-09-17T07:23:12.246Z,14.47
2018-09-17T07:25:40.698Z,14.10
2018-09-17T07:28:09.139Z,14.80
2018-09-17T07:30:37.693Z,14.70
2018-09-17T07:33:06.125Z,14.03
2018-09-17T07:35:34.635Z,13.13
2018-09-17T07:38:04.021Z,13.43
2018-09-17T07:40:32.471Z,13.40
2018-09-17T07:43:00.905Z,13.22
2018-09-17T07:45:29.344Z,15.13
2018-09-17T07:47:57.757Z,13.60
2018-09-17T07:50:26.208Z,13.18
2018-09-17T07:52:54.648Z,12.30
2018-09-17T07:55:23.187Z,14.43
2018-09-17T07:57:51.594Z,13.48
2018-09-17T08:00:20.056Z,13.33
2018-09-17T08:02:48.469Z,12.10
2018-09-17T08:05:17.103Z,12.18
2018-09-17T08:07:45.493Z,12.07
2018-09-17T08:10:18.259Z,11.45
2018-09-17T08:12:46.667Z,13.25
2018-09-17T08:15:15.512Z,12.95
2018-09-17T08:17:44.384Z,17.82
2018-09-17T08:20:13.109Z,13.45
2018-09-17T08:22:41.685Z,11.78
2018-09-17T08:25:10.441Z,13.50
2018-09-17T08:27:39.116Z,13.22
2018-09-17T08:30:08.233Z,11.65
2018-09-17T08:32:36.757Z,12.15
2018-09-17T08:35:05.800Z,11.20
2018-09-17T08:37:34.245Z,11.38
2018-09-17T08:40:02.798Z,11.75
2018-09-17T08:42:31.213Z,9.73
2018-09-17T08:44:59.604Z,10.75
2018-09-17T08:47:28.013Z,10.55
2018-09-17T08:49:56.514Z,9.93
2018-09-17T08:52:24.951Z,10.28
2018-09-17T08:54:58.762Z,9.48
2018-09-17T08:57:36.272Z,9.33
2018-09-17T09:00:11.990Z,8.93
2018-09-17T09:02:45.483Z,9.03
2018-09-17T09:05:19.241Z,9.63
2018-09-17T09:07:52.137Z,9.65
2018-09-17T09:10:26.385Z,9.53
2018-09-17T09:14:00.387Z,10.03
2018-09-17T09:16:28.762Z,8.55
2018-09-17T09:18:57.217Z,9.20
2018-09-17T09:21:25.610Z,9.35
2018-09-17T09:23:54.025Z,8.75
2018-09-17T09:26:22.412Z,8.85
2018-09-17T09:28:50.829Z,8.73
2018-09-17T09:31:19.205Z,8.15
2018-09-17T09:33:47.621Z,8.95
2018-09-17T09:36:15.990Z,8.38
2018-09-17T09:38:44.434Z,9.38
2018-09-17T09:41:12.845Z,8.55
2018-09-17T09:43:41.271Z,8.38
2018-09-17T09:46:09.685Z,8.45
2018-09-17T09:48:38.073Z,8.65
2018-09-17T09:51:06.497Z,8.45
2018-09-17T09:53:34.898Z,8.63
2018-09-17T09:56:03.670Z,8.10
2018-09-17T09:58:32.054Z,7.55
2018-09-17T10:01:05.736Z,7.37
2018-09-17T10:03:39.202Z,8.03
2018-09-17T10:06:07.618Z,7.58
2018-09-17T10:08:43.013Z,7.83
2018-09-17T10:11:16.707Z,8.98
2018-09-17T10:13:50.289Z,7.90
2018-09-17T10:16:20.018Z,6.85
2018-09-17T10:18:53.613Z,6.53
2018-09-17T10:21:22.314Z,7.70
2018-09-17T10:23:50.693Z,7.03
2018-09-17T10:26:19.218Z,6.70
2018-09-17T10:28:47.792Z,6.53
2018-09-17T10:31:16.309Z,7.35
2018-09-17T10:33:44.729Z,6.97
2018-09-17T10:36:13.149Z,7.95
2018-09-17T10:38:41.545Z,7.35
2018-09-17T10:41:10.014Z,7.17
2018-09-17T10:43:38.490Z,7.00
2018-09-17T10:46:07.305Z,7.03
2018-09-17T10:48:35.718Z,6.50
2018-09-17T10:51:04.189Z,7.22
2018-09-17T10:53:32.605Z,7.40
2018-09-17T10:56:01.002Z,6.80
2018-09-17T10:58:29.474Z,5.92
2018-09-17T11:00:57.860Z,6.58
2018-09-17T11:03:26.279Z,6.75
2018-09-17T11:05:54.673Z,5.70
2018-09-17T11:08:23.109Z,5.90
2018-09-17T11:10:51.497Z,6.60
2018-09-17T11:13:19.913Z,6.50
2018-09-17T11:15:49.543Z,7.22
2018-09-17T11:18:18.819Z,6.42
2018-09-17T11:20:48.006Z,6.95
2018-09-17T11:23:16.394Z,7.10
2018-09-17T11:25:44.935Z,7.00
2018-09-17T11:28:13.332Z,6.78
2018-09-17T11:30:41.925Z,6.25
2018-09-17T11:33:10.307Z,6.55
2018-09-17T11:35:38.749Z,7.22
2018-09-17T11:38:07.548Z,6.90
2018-09-17T11:40:35.978Z,6.30
2018-09-17T11:43:04.367Z,6.58
2018-09-17T11:45:32.798Z,7.30
2018-09-17T11:48:01.178Z,7.20
2018-09-17T11:50:29.877Z,6.37
2018-09-17T11:52:58.281Z,6.62
2018-09-17T11:55:26.713Z,7.85
2018-09-17T11:57:55.113Z,7.80
2018-09-17T12:00:28.737Z,8.30
2018-09-17T12:03:02.540Z,7.70
2018-09-17T12:05:37.114Z,8.30
2018-09-17T12:08:09.234Z,7.85
2018-09-17T12:10:38.238Z,7.90
2018-09-17T12:13:06.705Z,8.65
2018-09-17T12:15:39.455Z,8.45
2018-09-17T12:18:08.704Z,7.22
2018-09-17T12:20:38.101Z,7.05
2018-09-17T12:23:07.274Z,7.58
2018-09-17T12:25:35.998Z,7.75
2018-09-17T12:28:04.637Z,7.95
2018-09-17T12:30:33.066Z,8.43
2018-09-17T12:33:01.798Z,7.83
2018-09-17T12:35:30.297Z,7.25
2018-09-17T12:37:58.767Z,7.60
2018-09-17T12:40:27.841Z,7.17
2018-09-17T12:42:56.366Z,8.15
2018-09-17T12:45:25.689Z,7.87
2018-09-17T12:47:54.878Z,7.50
2018-09-17T12:50:23.706Z,7.50
2018-09-17T12:52:52.236Z,8.35
2018-09-17T12:55:20.700Z,9.33
2018-09-17T12:57:49.086Z,8.83
2018-09-17T13:00:18.377Z,8.10
2018-09-17T13:02:46.781Z,8.25
2018-09-17T13:05:15.469Z,8.43
2018-09-17T13:07:43.873Z,7.25
2018-09-17T13:10:12.281Z,7.87
2018-09-17T13:12:40.673Z,8.40
2018-09-17T13:15:09.150Z,8.03
2018-09-17T13:17:37.585Z,8.23
2018-09-17T13:20:07.225Z,8.70
2018-09-17T13:22:35.610Z,8.40
2018-09-17T13:25:04.190Z,8.28
2018-09-17T13:27:32.534Z,8.83
2018-09-17T13:30:00.941Z,8.18
2018-09-17T13:32:29.339Z,8.78
2018-09-17T13:34:57.763Z,7.90
2018-09-17T13:37:26.199Z,10.38
2018-09-17T13:39:54.798Z,8.58
2018-09-17T13:42:23.243Z,7.83
2018-09-17T13:44:51.646Z,7.62
2018-09-17T13:47:20.054Z,9.00
2018-09-17T13:49:48.487Z,10.53
2018-09-17T13:52:16.955Z,9.20
2018-09-17T13:54:45.365Z,8.55
2018-09-17T13:57:13.847Z,7.72
2018-09-17T13:59:42.334Z,8.55
2018-09-17T14:02:11.093Z,8.63
2018-09-17T14:04:39.465Z,8.85
2018-09-17T14:07:07.910Z,9.48
2018-09-17T14:09:36.297Z,8.43
2018-09-17T14:12:04.729Z,9.43
2018-09-17T14:14:33.152Z,9.13
2018-09-17T14:17:02.029Z,8.93
2018-09-17T14:19:30.474Z,9.65
2018-09-17T14:21:58.976Z,9.65
2018-09-17T14:24:27.365Z,10.03
2018-09-17T14:26:55.787Z,8.33
2018-09-17T14:29:24.205Z,9.28
2018-09-17T14:31:57.955Z,9.00
2018-09-17T14:34:26.341Z,8.30
2018-09-17T14:36:54.746Z,8.58
2018-09-17T14:39:23.204Z,8.15
2018-09-17T14:41:51.610Z,8.60
2018-09-17T14:44:20.029Z,8.30
2018-09-17T14:46:48.418Z,8.63
2018-09-17T14:49:16.842Z,8.25
2018-09-17T14:51:52.013Z,8.13
2018-09-17T14:54:20.471Z,8.48
2018-09-17T14:56:48.835Z,7.80
2018-09-17T14:59:17.310Z,8.93
2018-09-17T15:01:46.183Z,9.10
2018-09-17T15:04:14.564Z,8.63
2018-09-17T15:06:42.959Z,9.20
2018-09-17T15:09:11.518Z,8.35
2018-09-17T15:11:39.985Z,8.45
2018-09-17T15:14:09.247Z,8.50
2018-09-17T15:16:38.217Z,8.43
2018-09-17T15:19:06.817Z,7.87
2018-09-17T15:21:35.339Z,9.35
2018-09-17T15:24:03.824Z,8.63
2018-09-17T15:26:32.593Z,8.15
2018-09-17T15:29:01.086Z,7.87
2018-09-17T15:31:29.576Z,8.03
2018-09-17T15:33:58.131Z,8.30
2018-09-17T15:36:26.602Z,8.50
2018-09-17T15:38:55.094Z,7.67
2018-09-17T15:41:23.931Z,8.18
2018-09-17T15:43:52.385Z,8.03
2018-09-17T15:46:20.793Z,8.00
2018-09-17T15:48:49.176Z,7.92
2018-09-17T15:51:17.723Z,7.58
2018-09-17T15:53:46.204Z,6.87
2018-09-17T15:56:14.711Z,7.62
2018-09-17T15:58:43.041Z,7.58
2018-09-17T16:01:11.577Z,7.25
2018-09-17T16:03:39.960Z,7.75
2018-09-17T16:06:08.394Z,8.33
2018-09-17T16:08:36.790Z,7.35
2018-09-17T16:11:05.364Z,7.62
2018-09-17T16:13:33.737Z,9.08
2018-09-17T16:16:02.148Z,7.90
2018-09-17T16:18:33.723Z,7.42
2018-09-17T16:21:02.164Z,7.72
2018-09-17T16:23:30.534Z,7.95
2018-09-17T16:25:59.111Z,7.85
2018-09-17T16:28:27.508Z,8.28
2018-09-17T16:30:56.005Z,8.00
2018-09-17T16:33:24.429Z,7.50
2018-09-17T16:35:52.792Z,8.28
2018-09-17T16:38:21.212Z,8.40
2018-09-17T16:40:49.595Z,8.45
2018-09-17T16:43:18.005Z,8.73
2018-09-17T16:45:46.394Z,9.20
2018-09-17T16:48:14.858Z,8.55
2018-09-17T16:50:44.425Z,8.73
2018-09-17T16:53:12.892Z,8.33
2018-09-17T16:55:41.225Z,8.75
2018-09-17T16:58:09.877Z,8.60
2018-09-17T17:00:38.265Z,8.45
2018-09-17T17:03:06.697Z,8.13
2018-09-17T17:05:35.093Z,7.87
2018-09-17T17:08:03.506Z,8.20
2018-09-17T17:10:32.078Z,8.00
2018-09-17T17:13:00.478Z,8.23
2018-09-17T17:15:28.917Z,7.12
2018-09-17T17:17:57.592Z,7.80
2018-09-17T17:20:26.045Z,8.35
2018-09-17T17:22:54.480Z,7.75
2018-09-17T17:25:22.861Z,8.00
2018-09-17T17:27:51.391Z,7.28
2018-09-17T17:30:19.844Z,7.17
2018-09-17T17:32:48.285Z,8.00
2018-09-17T17:35:16.770Z,7.83
2018-09-17T17:37:45.166Z,7.47
2018-09-17T17:40:13.860Z,7.42
2018-09-17T17:42:42.297Z,8.50
2018-09-17T17:45:10.725Z,7.83
2018-09-17T17:47:39.119Z,8.10
2018-09-17T17:50:07.760Z,9.18
2018-09-17T17:52:36.188Z,7.83
2018-09-17T17:55:04.813Z,7.70
2018-09-17T17:57:33.230Z,7.37
2018-09-17T18:00:01.812Z,7.70
2018-09-17T18:02:30.189Z,7.60
2018-09-17T18:04:58.656Z,8.18
2018-09-17T18:07:27.033Z,7.50
2018-09-17T18:09:55.450Z,7.97
2018-09-17T18:12:23.825Z,7.75
2018-09-17T18:14:52.441Z,8.63
2018-09-17T18:17:21.929Z,8.15
2018-09-17T18:19:50.341Z,8.33
2018-09-17T18:22:19.177Z,7.80
2018-09-17T18:24:47.960Z,7.35
2018-09-17T18:27:16.438Z,7.62
2018-09-17T18:29:46.462Z,7.10
2018-09-17T18:32:14.868Z,8.10
2018-09-17T18:34:43.606Z,7.62
2018-09-17T18:37:12.110Z,8.58
2018-09-17T18:39:40.705Z,8.30
2018-09-17T18:42:09.806Z,8.38
2018-09-17T18:44:38.672Z,8.00
2018-09-17T18:47:07.113Z,8.38
2018-09-17T18:49:35.509Z,7.95
2018-09-17T18:52:04.130Z,8.75
2018-09-17T18:54:32.505Z,9.23
2018-09-17T18:57:01.092Z,8.90
2018-09-17T18:59:29.493Z,7.70
2018-09-17T19:01:58.156Z,8.55
2018-09-17T19:04:26.708Z,8.53
2018-09-17T19:06:58.107Z,9.35
2018-09-17T19:09:31.734Z,9.83
2018-09-17T19:12:00.190Z,9.28
2018-09-17T19:14:33.674Z,8.68
2018-09-17T19:17:06.654Z,9.18
2018-09-17T19:19:35.087Z,8.68
2018-09-17T19:22:09.405Z,9.03
2018-09-17T19:24:37.610Z,9.20
2018-09-17T19:27:06.314Z,10.15
2018-09-17T19:29:34.731Z,9.50
2018-09-17T19:32:03.138Z,8.63
2018-09-17T19:34:31.802Z,9.60
2018-09-17T19:37:05.357Z,10.70
2018-09-17T19:39:39.247Z,11.15
2018-09-17T19:42:07.957Z,10.23
2018-09-17T19:44:36.353Z,10.03
2018-09-17T19:47:04.738Z,9.53
2018-09-17T19:49:33.156Z,9.63
2018-09-17T19:52:07.326Z,9.60
2018-09-17T19:54:35.742Z,10.23
2018-09-17T19:57:08.354Z,9.80
2018-09-17T19:59:42.045Z,10.05
2018-09-17T20:02:10.479Z,10.78
2018-09-17T20:04:44.029Z,10.65
2018-09-17T20:07:12.571Z,11.00
2018-09-17T20:09:40.994Z,10.32
2018-09-17T20:12:09.369Z,10.45
2018-09-17T20:14:37.798Z,12.37
2018-09-17T20:17:06.177Z,10.30
2018-09-17T20:19:34.630Z,10.03
2018-09-17T20:22:03.784Z,10.98
2018-09-17T20:24:32.185Z,9.70
2018-09-17T20:27:00.661Z,11.30
2018-09-17T20:29:29.070Z,10.75
2018-09-17T20:31:57.479Z,11.35
2018-09-17T20:34:25.922Z,10.78
2018-09-17T20:36:54.297Z,11.03
2018-09-17T20:39:22.993Z,10.68
2018-09-17T20:41:51.362Z,11.35
2018-09-17T20:44:20.306Z,11.18
2018-09-17T20:46:48.756Z,11.30
2018-09-17T20:49:17.332Z,11.12
2018-09-17T20:51:46.121Z,12.15
2018-09-17T20:54:14.497Z,11.80
2018-09-17T20:56:42.941Z,11.85
2018-09-17T20:59:11.318Z,11.48
2018-09-17T21:01:39.821Z,11.78
2018-09-17T21:04:08.285Z,11.18
2018-09-17T21:06:38.661Z,11.30
2018-09-17T21:09:09.529Z,11.25
2018-09-17T21:11:37.949Z,11.50
2018-09-17T21:14:06.889Z,11.10
2018-09-17T21:16:35.730Z,11.30
2018-09-17T21:19:04.226Z,11.90
2018-09-17T21:21:32.642Z,11.18
2018-09-17T21:24:01.133Z,11.00
2018-09-17T21:26:29.599Z,11.25
2018-09-17T21:28:57.974Z,10.93
2018-09-17T21:31:26.365Z,11.12
2018-09-17T21:33:54.845Z,11.83
2018-09-17T21:36:23.224Z,11.00
2018-09-17T21:38:51.648Z,11.08
2018-09-17T21:41:20.064Z,10.80
2018-09-17T21:43:48.493Z,10.45
2018-09-17T21:46:16.878Z,11.73
2018-09-17T21:48:45.299Z,11.05
2018-09-17T21:51:13.716Z,10.90
2018-09-17T21:53:42.133Z,11.53
2018-09-17T21:56:10.549Z,11.00
2018-09-17T21:58:38.971Z,11.68
2018-09-17T22:01:07.430Z,10.70
2018-09-17T22:03:36.229Z,11.60
2018-09-17T22:06:04.648Z,11.47
2018-09-17T22:08:33.024Z,11.43
2018-09-17T22:11:01.477Z,11.28
2018-09-17T22:13:29.921Z,10.23
2018-09-17T22:15:58.346Z,10.55
2018-09-17T22:18:26.857Z,10.80
2018-09-17T22:20:55.277Z,11.67
2018-09-17T22:23:23.651Z,11.08
2018-09-17T22:25:52.066Z,10.78
2018-09-17T22:28:20.453Z,11.00
2018-09-17T22:30:48.881Z,10.97
2018-09-17T22:33:17.285Z,11.67
2018-09-17T22:35:45.701Z,11.75
2018-09-17T22:38:14.129Z,11.10
2018-09-17T22:40:42.545Z,11.33
2018-09-17T22:43:10.941Z,10.97
2018-09-17T22:45:39.357Z,11.17
2018-09-17T22:48:07.757Z,11.23
2018-09-17T22:50:36.161Z,11.25
2018-09-17T22:53:04.666Z,10.63
2018-09-17T22:55:33.076Z,11.03
2018-09-17T22:58:01.829Z,11.08
2018-09-17T23:00:30.286Z,10.33
2018-09-17T23:02:58.665Z,10.90
2018-09-17T23:05:27.085Z,10.90
2018-09-17T23:07:55.461Z,11.43
2018-09-17T23:10:23.841Z,11.17
2018-09-17T23:12:52.245Z,11.23
2018-09-17T23:15:20.629Z,10.97
2018-09-17T23:17:49.030Z,10.93
2018-09-17T23:20:17.436Z,11.15
2018-09-17T23:22:45.841Z,10.87
2018-09-17T23:25:14.233Z,11.30
2018-09-17T23:27:42.640Z,11.45
2018-09-17T23:30:11.021Z,12.60
2018-09-17T23:32:39.465Z,12.50
2018-09-17T23:35:07.891Z,12.45
2018-09-17T23:37:36.297Z,11.60
2018-09-17T23:40:04.725Z,11.37
2018-09-17T23:42:33.149Z,12.40
2018-09-17T23:45:01.541Z,11.05
2018-09-17T23:47:29.922Z,11.87
2018-09-17T23:49:58.333Z,11.27
2018-09-17T23:52:26.708Z,10.43
2018-09-17T23:54:55.128Z,10.83
2018-09-17T23:57:23.525Z,9.97
2018-09-17T23:59:51.944Z,10.50
